createdAt,value
2022-09-12T00:02:21.353Z,4.70
2022-09-12T00:04:47.193Z,4.50
2022-09-12T00:07:13.010Z,4.40
2022-09-12T00:09:38.916Z,4.17
2022-09-12T00:12:04.914Z,4.10
2022-09-12T00:14:30.814Z,5.00
2022-09-12T00:16:58.574Z,4.77
2022-09-12T00:19:25.540Z,5.10
2022-09-12T00:21:51.362Z,4.93
2022-09-12T00:24:17.361Z,4.53
2022-09-12T00:26:43.193Z,4.60
2022-09-12T00:29:18.063Z,4.50
2022-09-12T00:31:44.006Z,4.37
2022-09-12T00:34:09.953Z,4.20
2022-09-12T00:36:36.014Z,5.03
2022-09-12T00:39:02.420Z,5.27
2022-09-12T00:41:28.162Z,4.80
2022-09-12T00:44:22.663Z,4.13
2022-09-12T00:47:02.829Z,4.53
2022-09-12T00:49:32.844Z,4.60
2022-09-12T00:52:28.002Z,4.60
2022-09-12T00:55:02.995Z,5.00
2022-09-12T00:57:33.597Z,4.60
2022-09-12T01:00:09.334Z,4.83
2022-09-12T01:02:35.282Z,4.90
2022-09-12T01:05:01.168Z,5.13
2022-09-12T01:07:59.339Z,4.80
2022-09-12T01:10:25.143Z,5.37
2022-09-12T01:12:51.078Z,4.93
2022-09-12T01:15:17.083Z,5.27
2022-09-12T01:18:01.737Z,4.83
2022-09-12T01:20:48.906Z,5.50
2022-09-12T01:24:00.412Z,5.63
2022-09-12T01:26:54.230Z,4.00
2022-09-12T01:29:49.711Z,4.60
2022-09-12T01:32:24.662Z,4.67
2022-09-12T01:34:59.895Z,4.63
2022-09-12T01:37:30.853Z,4.60
2022-09-12T01:40:15.220Z,4.93
2022-09-12T01:42:48.164Z,4.60
2022-09-12T01:45:24.275Z,5.10
2022-09-12T01:47:55.648Z,4.83
2022-09-12T01:50:27.852Z,5.30
2022-09-12T01:53:23.808Z,4.37
2022-09-12T01:56:00.358Z,4.90
2022-09-12T01:58:29.720Z,4.77
2022-09-12T02:01:01.919Z,4.60
2022-09-12T02:03:32.958Z,4.37
2022-09-12T02:06:19.097Z,4.13
2022-09-12T02:08:51.740Z,4.30
2022-09-12T02:11:18.224Z,4.80
2022-09-12T02:13:49.201Z,4.60
2022-09-12T02:16:37.699Z,4.37
2022-09-12T02:19:09.218Z,4.60
2022-09-12T02:21:37.408Z,4.57
2022-09-12T02:24:04.677Z,4.80
2022-09-12T02:27:03.554Z,5.33
2022-09-12T02:29:29.538Z,4.80
2022-09-12T02:32:02.368Z,4.90
2022-09-12T02:34:54.469Z,5.17
2022-09-12T02:37:26.479Z,4.83
2022-09-12T02:39:54.382Z,4.50
2022-09-12T02:42:21.227Z,4.13
2022-09-12T02:44:47.265Z,4.83
2022-09-12T02:47:24.401Z,5.30
2022-09-12T02:49:50.948Z,5.97
2022-09-12T02:52:17.087Z,6.77
2022-09-12T02:54:43.012Z,7.57
2022-09-12T02:57:20.635Z,6.80
2022-09-12T02:59:49.933Z,8.10
2022-09-12T03:02:27.473Z,6.50
2022-09-12T03:05:08.398Z,9.63
2022-09-12T03:07:42.948Z,8.10
2022-09-12T03:10:22.115Z,8.90
2022-09-12T03:12:54.121Z,10.70
2022-09-12T03:15:19.897Z,8.60
2022-09-12T03:18:07.418Z,9.03
2022-09-12T03:21:01.136Z,7.87
2022-09-12T03:24:11.085Z,9.37
2022-09-12T03:26:42.312Z,9.70
2022-09-12T03:29:10.089Z,9.47
2022-09-12T03:31:36.250Z,10.60
2022-09-12T03:34:02.181Z,9.00
2022-09-12T03:36:29.374Z,9.33
2022-09-12T03:38:55.860Z,8.47
2022-09-12T03:41:21.959Z,10.40
2022-09-12T03:43:48.325Z,11.60
2022-09-12T03:46:14.267Z,12.13
2022-09-12T03:48:40.745Z,11.10
2022-09-12T03:51:09.434Z,11.37
2022-09-12T03:53:35.597Z,8.60
2022-09-12T03:56:09.152Z,11.23
2022-09-12T03:58:35.708Z,9.50
2022-09-12T04:01:12.972Z,9.57
2022-09-12T04:03:40.242Z,11.50
2022-09-12T04:06:07.125Z,10.67
2022-09-12T04:08:34.189Z,11.77
2022-09-12T04:11:04.782Z,10.53
2022-09-12T04:13:30.774Z,11.10
2022-09-12T04:16:00.192Z,16.50
2022-09-12T04:18:26.776Z,12.20
2022-09-12T04:20:52.712Z,11.87
2022-09-12T04:23:19.039Z,10.87
2022-09-12T04:25:52.917Z,12.40
2022-09-12T04:28:18.701Z,11.47
2022-09-12T04:30:44.503Z,11.50
2022-09-12T04:33:10.339Z,10.70
2022-09-12T04:35:36.346Z,11.23
2022-09-12T04:38:03.004Z,11.40
2022-09-12T04:40:29.844Z,9.73
2022-09-12T04:42:55.640Z,10.40
2022-09-12T04:45:22.141Z,10.50
2022-09-12T04:47:48.255Z,10.90
2022-09-12T04:50:14.247Z,8.70
2022-09-12T04:52:40.831Z,8.40
2022-09-12T04:55:07.595Z,10.40
2022-09-12T04:57:33.426Z,10.67
2022-09-12T05:00:01.792Z,10.20
2022-09-12T05:02:30.103Z,11.23
2022-09-12T05:04:55.937Z,10.00
2022-09-12T05:07:21.749Z,11.40
2022-09-12T05:09:47.548Z,11.70
2022-09-12T05:12:13.884Z,9.70
2022-09-12T05:14:39.883Z,8.40
2022-09-12T05:17:05.789Z,9.17
2022-09-12T05:19:32.153Z,11.33
2022-09-12T05:21:58.331Z,10.70
2022-09-12T05:24:24.670Z,9.53
2022-09-12T05:26:50.507Z,10.60
2022-09-12T05:29:16.366Z,10.73
2022-09-12T05:31:42.602Z,11.43
2022-09-12T05:34:09.343Z,10.73
2022-09-12T05:36:36.411Z,9.73
2022-09-12T05:39:03.784Z,9.90
2022-09-12T05:41:32.203Z,8.50
2022-09-12T05:44:00.161Z,11.70
2022-09-12T05:46:28.521Z,8.87
2022-09-12T05:48:56.334Z,8.50
2022-09-12T05:51:28.281Z,9.30
2022-09-12T05:53:58.832Z,9.70
2022-09-12T05:56:30.317Z,9.60
2022-09-12T05:59:01.292Z,8.70
2022-09-12T06:01:28.779Z,9.70
2022-09-12T06:03:56.996Z,7.77
2022-09-12T06:06:24.319Z,9.80
2022-09-12T06:08:52.123Z,9.20
2022-09-12T06:11:20.946Z,8.97
2022-09-12T06:13:47.390Z,8.20
2022-09-12T06:16:18.548Z,9.10
2022-09-12T06:19:17.451Z,9.07
2022-09-12T06:21:44.019Z,7.80
2022-09-12T06:24:10.007Z,8.23
2022-09-12T06:26:36.073Z,10.10
2022-09-12T06:29:02.365Z,8.20
2022-09-12T06:31:33.838Z,8.40
2022-09-12T06:34:02.330Z,9.30
2022-09-12T06:36:37.534Z,9.10
2022-09-12T06:39:11.395Z,8.63
2022-09-12T06:41:41.594Z,8.63
2022-09-12T06:44:15.228Z,9.23
2022-09-12T06:46:41.404Z,10.30
2022-09-12T06:49:07.467Z,8.40
2022-09-12T06:51:35.531Z,9.17
2022-09-12T06:54:02.060Z,8.50
2022-09-12T06:56:28.108Z,9.50
2022-09-12T06:58:57.794Z,8.73
2022-09-12T07:01:24.922Z,10.10
2022-09-12T07:03:58.542Z,6.40
2022-09-12T07:06:30.893Z,8.00
2022-09-12T07:08:58.055Z,8.60
2022-09-12T07:11:26.135Z,10.57
2022-09-12T07:13:54.481Z,8.13
2022-09-12T07:16:20.405Z,9.07
2022-09-12T07:19:00.112Z,9.07
2022-09-12T07:21:26.574Z,8.60
2022-09-12T07:23:54.564Z,9.20
2022-09-12T07:26:20.466Z,8.67
2022-09-12T07:28:50.534Z,8.40
2022-09-12T07:31:21.069Z,9.10
2022-09-12T07:33:49.067Z,7.80
2022-09-12T07:36:20.193Z,8.20
2022-09-12T07:38:46.256Z,10.20
2022-09-12T07:41:20.385Z,9.10
2022-09-12T07:43:46.880Z,8.90
2022-09-12T07:46:13.845Z,10.23
2022-09-12T07:48:40.350Z,9.87
2022-09-12T07:51:08.667Z,11.50
2022-09-12T07:53:37.304Z,10.03
2022-09-12T07:56:04.820Z,12.20
2022-09-12T07:58:32.307Z,11.77
2022-09-12T08:01:09.452Z,13.17
2022-09-12T08:03:36.070Z,9.97
2022-09-12T08:06:06.538Z,12.00
2022-09-12T08:08:32.392Z,9.50
2022-09-12T08:11:20.296Z,11.30
2022-09-12T08:13:46.532Z,11.70
2022-09-12T08:16:18.180Z,10.07
2022-09-12T08:18:44.521Z,10.90
2022-09-12T08:21:15.851Z,11.70
2022-09-12T08:23:42.847Z,11.90
2022-09-12T08:26:09.818Z,11.00
2022-09-12T08:28:36.287Z,11.40
2022-09-12T08:31:05.831Z,11.30
2022-09-12T08:33:34.784Z,11.63
2022-09-12T08:36:10.950Z,10.03
2022-09-12T08:38:38.264Z,10.13
2022-09-12T08:41:11.470Z,11.90
2022-09-12T08:43:58.739Z,11.27
2022-09-12T08:46:36.617Z,10.90
2022-09-12T08:49:03.435Z,11.40
2022-09-12T08:51:30.900Z,9.37
2022-09-12T08:53:57.039Z,9.37
2022-09-12T08:56:26.507Z,9.60
2022-09-12T08:58:55.521Z,9.10
2022-09-12T09:01:31.676Z,9.17
2022-09-12T09:04:19.374Z,9.80
2022-09-12T09:07:13.950Z,10.27
2022-09-12T09:10:13.274Z,10.23
2022-09-12T09:13:00.185Z,8.97
2022-09-12T09:15:35.355Z,9.57
2022-09-12T09:18:23.141Z,8.90
2022-09-12T09:21:22.963Z,8.23
2022-09-12T09:23:54.848Z,8.73
2022-09-12T09:26:25.962Z,8.47
2022-09-12T09:28:57.273Z,8.30
2022-09-12T09:31:25.338Z,8.43
2022-09-12T09:33:54.727Z,7.83
2022-09-12T09:36:33.739Z,8.20
2022-09-12T09:39:14.207Z,7.53
2022-09-12T09:42:17.533Z,6.60
2022-09-12T09:44:46.567Z,7.73
2022-09-12T09:47:12.511Z,6.80
2022-09-12T09:49:38.418Z,6.63
2022-09-12T09:52:07.425Z,6.37
2022-09-12T09:54:54.200Z,6.07
2022-09-12T09:57:35.382Z,5.80
2022-09-12T10:00:26.254Z,5.50
2022-09-12T10:03:14.230Z,5.90
2022-09-12T10:05:54.330Z,5.30
2022-09-12T10:08:25.585Z,4.47
2022-09-12T10:11:00.737Z,5.43
2022-09-12T10:13:53.878Z,5.33
2022-09-12T10:16:22.378Z,5.80
2022-09-12T10:18:50.422Z,5.73
2022-09-12T10:21:18.876Z,5.13
2022-09-12T10:23:46.270Z,5.90
2022-09-12T10:26:14.584Z,4.50
2022-09-12T10:28:45.022Z,4.30
2022-09-12T10:31:15.560Z,5.27
2022-09-12T10:33:44.379Z,4.53
2022-09-12T10:36:10.666Z,4.80
2022-09-12T10:38:36.669Z,4.07
2022-09-12T10:41:05.845Z,4.50
2022-09-12T10:43:37.249Z,3.80
2022-09-12T10:46:15.317Z,3.90
2022-09-12T10:48:42.292Z,3.60
2022-09-12T10:51:34.505Z,3.10
2022-09-12T10:54:02.449Z,2.70
2022-09-12T10:56:29.836Z,3.93
2022-09-12T10:59:11.152Z,3.17
2022-09-12T11:01:43.493Z,3.20
2022-09-12T11:04:28.459Z,3.50
2022-09-12T11:07:31.679Z,3.40
2022-09-12T11:10:18.893Z,4.17
2022-09-12T11:13:09.796Z,3.70
2022-09-12T11:15:57.251Z,5.43
2022-09-12T11:18:38.179Z,5.33
2022-09-12T11:21:28.021Z,5.00
2022-09-12T11:24:08.889Z,5.60
2022-09-12T11:26:57.262Z,5.70
2022-09-12T11:29:29.137Z,5.03
2022-09-12T11:32:10.172Z,5.50
2022-09-12T11:35:08.753Z,4.73
2022-09-12T11:37:45.803Z,4.90
2022-09-12T11:40:43.937Z,5.20
2022-09-12T11:43:43.786Z,6.00
2022-09-12T11:46:35.829Z,5.70
2022-09-12T11:49:14.116Z,6.27
2022-09-12T11:51:50.301Z,5.70
2022-09-12T11:54:32.259Z,6.13
2022-09-12T11:57:07.765Z,5.70
2022-09-12T11:59:51.624Z,6.43
2022-09-12T12:02:24.377Z,5.00
2022-09-12T12:05:01.519Z,6.13
2022-09-12T12:07:33.688Z,6.13
2022-09-12T12:09:59.817Z,6.30
2022-09-12T12:12:27.793Z,5.93
2022-09-12T12:14:55.089Z,5.80
2022-09-12T12:17:25.277Z,6.47
2022-09-12T12:20:07.425Z,7.20
2022-09-12T12:22:34.308Z,6.40
2022-09-12T12:25:29.621Z,6.40
2022-09-12T12:27:58.505Z,6.87
2022-09-12T12:30:30.246Z,6.43
2022-09-12T12:33:19.148Z,6.00
2022-09-12T12:36:02.625Z,6.10
2022-09-12T12:38:33.462Z,6.50
2022-09-12T12:41:17.273Z,6.53
2022-09-12T12:43:44.456Z,5.20
2022-09-12T12:46:15.081Z,5.60
2022-09-12T12:49:07.195Z,5.30
2022-09-12T12:51:53.530Z,5.20
2022-09-12T12:54:40.924Z,6.13
2022-09-12T12:57:12.600Z,6.30
2022-09-12T12:59:47.557Z,6.00
2022-09-12T13:02:55.136Z,6.17
2022-09-12T13:05:23.815Z,6.70
2022-09-12T13:07:58.055Z,5.93
2022-09-12T13:10:28.807Z,5.00
2022-09-12T13:12:57.057Z,5.80
2022-09-12T13:15:35.021Z,5.73
2022-09-12T13:18:05.950Z,4.93
2022-09-12T13:20:37.109Z,5.03
2022-09-12T13:23:03.206Z,5.00
2022-09-12T13:25:32.986Z,4.60
2022-09-12T13:28:11.226Z,5.13
2022-09-12T13:30:39.513Z,5.30
2022-09-12T13:33:19.154Z,6.10
2022-09-12T13:36:02.343Z,6.03
2022-09-12T13:38:51.422Z,5.40
2022-09-12T13:41:35.990Z,5.00
2022-09-12T13:44:02.786Z,5.50
2022-09-12T13:46:31.363Z,5.47
2022-09-12T13:48:58.583Z,5.80
2022-09-12T13:51:26.446Z,4.70
2022-09-12T13:53:55.643Z,4.97
2022-09-12T13:56:21.579Z,4.47
2022-09-12T13:59:10.303Z,5.00
2022-09-12T14:01:41.469Z,4.60
2022-09-12T14:04:39.228Z,4.60
2022-09-12T14:07:18.889Z,4.40
2022-09-12T14:09:46.448Z,5.20
2022-09-12T14:12:19.889Z,4.67
2022-09-12T14:14:49.239Z,3.83
2022-09-12T14:17:18.903Z,3.93
2022-09-12T14:19:47.542Z,4.23
2022-09-12T14:22:19.598Z,4.30
2022-09-12T14:24:50.850Z,4.70
2022-09-12T14:27:25.417Z,4.43
2022-09-12T14:30:21.392Z,3.50
2022-09-12T14:33:05.302Z,4.50
2022-09-12T14:35:34.765Z,4.10
2022-09-12T14:38:14.656Z,4.17
2022-09-12T14:40:42.969Z,4.43
2022-09-12T14:43:22.406Z,4.53
2022-09-12T14:45:53.297Z,3.20
2022-09-12T14:48:19.521Z,3.80
2022-09-12T14:50:48.915Z,3.13
2022-09-12T14:53:17.783Z,3.13
2022-09-12T14:55:46.695Z,3.07
2022-09-12T14:58:17.670Z,2.90
2022-09-12T15:01:07.727Z,2.87
2022-09-12T15:03:36.263Z,3.00
2022-09-12T15:06:05.081Z,2.50
2022-09-12T15:08:31.367Z,2.50
2022-09-12T15:10:58.125Z,2.20
2022-09-12T15:13:28.269Z,2.73
2022-09-12T15:15:55.955Z,3.10
2022-09-12T15:18:24.022Z,3.40
2022-09-12T15:20:53.057Z,3.50
2022-09-12T15:23:25.190Z,3.70
2022-09-12T15:25:51.006Z,3.50
2022-09-12T15:28:19.485Z,3.70
2022-09-12T15:30:48.777Z,3.90
2022-09-12T15:33:14.887Z,3.80
2022-09-12T15:35:40.757Z,3.60
2022-09-12T15:38:06.611Z,3.63
2022-09-12T15:40:32.395Z,4.10
2022-09-12T15:42:58.315Z,3.73
2022-09-12T15:45:27.215Z,3.10
2022-09-12T15:47:53.686Z,3.90
2022-09-12T15:50:19.531Z,3.07
2022-09-12T15:52:45.475Z,3.37
2022-09-12T15:55:31.373Z,3.87
2022-09-12T15:57:58.021Z,3.40
2022-09-12T16:00:24.258Z,4.17
2022-09-12T16:02:51.718Z,4.03
2022-09-12T16:05:20.371Z,3.90
2022-09-12T16:07:46.313Z,3.87
2022-09-12T16:10:17.220Z,4.50
2022-09-12T16:12:43.468Z,3.33
2022-09-12T16:15:14.869Z,3.40
2022-09-12T16:17:40.780Z,3.83
2022-09-12T16:20:07.536Z,4.00
2022-09-12T16:22:33.513Z,3.70
2022-09-12T16:24:59.316Z,3.80
2022-09-12T16:27:25.198Z,3.77
2022-09-12T16:29:51.338Z,3.50
2022-09-12T16:32:17.362Z,3.37
2022-09-12T16:34:43.167Z,3.43
2022-09-12T16:37:08.974Z,3.40
2022-09-12T16:39:35.886Z,4.00
2022-09-12T16:42:01.719Z,4.20
2022-09-12T16:44:28.644Z,3.83
2022-09-12T16:46:54.736Z,6.10
2022-09-12T16:49:21.097Z,3.63
2022-09-12T16:51:47.193Z,3.63
2022-09-12T16:54:14.109Z,3.80
2022-09-12T16:56:40.560Z,3.70
2022-09-12T16:59:08.912Z,3.63
2022-09-12T17:01:35.327Z,4.10
2022-09-12T17:04:01.884Z,3.53
2022-09-12T17:06:28.296Z,3.53
2022-09-12T17:08:57.317Z,3.47
2022-09-12T17:11:26.240Z,3.70
2022-09-12T17:14:04.356Z,4.03
2022-09-12T17:16:32.248Z,4.10
2022-09-12T17:18:58.090Z,3.60
2022-09-12T17:21:24.040Z,3.63
2022-09-12T17:23:49.830Z,7.33
2022-09-12T17:26:16.039Z,3.73
2022-09-12T17:28:42.108Z,3.67
2022-09-12T17:31:10.356Z,3.20
2022-09-12T17:33:36.981Z,3.30
2022-09-12T17:36:05.019Z,3.80
2022-09-12T17:38:33.420Z,3.50
2022-09-12T17:41:12.001Z,4.00
2022-09-12T17:43:39.479Z,3.23
2022-09-12T17:46:05.625Z,3.50
2022-09-12T17:48:32.443Z,3.50
2022-09-12T17:50:58.624Z,3.97
2022-09-12T17:53:24.727Z,3.37
2022-09-12T17:55:54.228Z,3.27
2022-09-12T17:58:20.264Z,3.10
2022-09-12T18:01:04.502Z,3.37
2022-09-12T18:03:30.286Z,3.63
2022-09-12T18:05:56.086Z,3.80
2022-09-12T18:08:23.242Z,4.10
2022-09-12T18:10:51.036Z,3.60
2022-09-12T18:13:17.336Z,3.40
2022-09-12T18:15:43.255Z,3.97
2022-09-12T18:18:09.271Z,3.60
2022-09-12T18:20:35.171Z,3.60
2022-09-12T18:23:00.986Z,3.70
2022-09-12T18:25:26.795Z,3.53
2022-09-12T18:27:52.613Z,3.13
2022-09-12T18:30:22.781Z,3.63
2022-09-12T18:32:49.153Z,4.50
2022-09-12T18:35:15.107Z,4.50
2022-09-12T18:37:41.233Z,4.20
2022-09-12T18:40:07.344Z,4.30
2022-09-12T18:42:33.137Z,4.57
2022-09-12T18:44:59.446Z,3.83
2022-09-12T18:47:25.237Z,4.30
2022-09-12T18:49:51.007Z,4.00
2022-09-12T18:52:19.007Z,4.00
2022-09-12T18:54:44.949Z,4.00
2022-09-12T18:57:10.747Z,3.90
2022-09-12T18:59:36.545Z,4.50
2022-09-12T19:02:02.595Z,3.87
2022-09-12T19:04:28.497Z,4.10
2022-09-12T19:06:54.332Z,4.63
2022-09-12T19:09:20.355Z,4.03
2022-09-12T19:11:50.197Z,4.30
2022-09-12T19:14:19.022Z,4.60
2022-09-12T19:16:45.071Z,7.30
2022-09-12T19:19:11.001Z,5.07
2022-09-12T19:21:36.827Z,5.00
2022-09-12T19:24:05.411Z,4.87
2022-09-12T19:26:32.206Z,5.37
2022-09-12T19:28:58.660Z,5.77
2022-09-12T19:31:24.710Z,5.20
2022-09-12T19:33:53.754Z,5.20
2022-09-12T19:36:43.792Z,4.97
2022-09-12T19:39:07.786Z,4.73
2022-09-12T19:41:34.108Z,5.00
2022-09-12T19:44:00.450Z,4.53
2022-09-12T19:46:26.660Z,4.80
2022-09-12T19:48:53.052Z,5.77
2022-09-12T19:51:20.200Z,5.07
2022-09-12T19:53:46.708Z,5.33
2022-09-12T19:56:13.743Z,5.53
2022-09-12T19:58:44.779Z,5.13
2022-09-12T20:01:14.755Z,4.67
2022-09-12T20:03:41.468Z,5.30
2022-09-12T20:06:09.079Z,5.63
2022-09-12T20:08:36.771Z,5.37
2022-09-12T20:11:03.114Z,5.50
2022-09-12T20:13:29.078Z,5.43
2022-09-12T20:15:55.054Z,5.30
2022-09-12T20:18:20.992Z,4.77
2022-09-12T20:20:46.851Z,5.20
2022-09-12T20:23:12.677Z,5.60
2022-09-12T20:25:38.464Z,5.23
2022-09-12T20:28:04.242Z,4.97
2022-09-12T20:30:30.090Z,4.40
2022-09-12T20:32:56.044Z,5.70
2022-09-12T20:35:22.484Z,5.03
2022-09-12T20:37:48.600Z,4.37
2022-09-12T20:40:14.500Z,5.20
2022-09-12T20:42:40.382Z,4.50
2022-09-12T20:45:06.732Z,5.10
2022-09-12T20:47:32.531Z,5.20
2022-09-12T20:49:58.343Z,5.27
2022-09-12T20:52:24.132Z,5.40
2022-09-12T20:54:50.047Z,4.97
2022-09-12T20:57:15.881Z,5.00
2022-09-12T20:59:41.859Z,4.20
2022-09-12T21:02:13.882Z,5.10
2022-09-12T21:04:39.736Z,5.43
2022-09-12T21:07:05.729Z,5.33
2022-09-12T21:09:31.575Z,4.90
2022-09-12T21:11:57.362Z,5.30
2022-09-12T21:14:23.243Z,5.97
2022-09-12T21:16:49.064Z,5.83
2022-09-12T21:19:16.180Z,6.57
2022-09-12T21:21:42.083Z,5.60
2022-09-12T21:24:12.694Z,6.30
2022-09-12T21:26:38.531Z,6.53
2022-09-12T21:29:04.564Z,6.67
2022-09-12T21:31:30.406Z,6.27
2022-09-12T21:33:56.344Z,5.60
2022-09-12T21:36:23.521Z,5.17
2022-09-12T21:38:49.409Z,5.70
2022-09-12T21:41:16.260Z,5.87
2022-09-12T21:43:42.575Z,5.97
2022-09-12T21:46:09.280Z,5.90
2022-09-12T21:48:35.605Z,5.27
2022-09-12T21:51:01.559Z,6.17
2022-09-12T21:53:27.846Z,6.00
2022-09-12T21:55:54.244Z,5.57
2022-09-12T21:58:20.078Z,5.40
2022-09-12T22:00:46.452Z,5.97
2022-09-12T22:03:12.285Z,6.20
2022-09-12T22:05:42.420Z,5.93
2022-09-12T22:08:09.502Z,7.17
2022-09-12T22:10:35.910Z,6.50
2022-09-12T22:13:01.994Z,5.17
2022-09-12T22:15:43.311Z,5.80
2022-09-12T22:18:09.256Z,5.30
2022-09-12T22:20:35.094Z,6.30
2022-09-12T22:23:24.376Z,6.70
2022-09-12T22:25:53.449Z,6.10
2022-09-12T22:28:19.416Z,6.47
2022-09-12T22:30:48.342Z,6.20
2022-09-12T22:33:14.200Z,6.90
2022-09-12T22:35:40.005Z,6.60
2022-09-12T22:38:05.817Z,6.10
2022-09-12T22:40:31.590Z,5.90
2022-09-12T22:42:57.382Z,6.60
2022-09-12T22:45:23.379Z,6.17
2022-09-12T22:47:49.160Z,6.20
2022-09-12T22:50:15.086Z,6.90
2022-09-12T22:52:40.963Z,6.07
2022-09-12T22:55:07.223Z,5.90
2022-09-12T22:57:33.031Z,6.33
2022-09-12T22:59:58.843Z,5.70
2022-09-12T23:02:24.610Z,6.33
2022-09-12T23:04:51.665Z,5.90
2022-09-12T23:07:17.746Z,6.80
2022-09-12T23:09:45.384Z,6.53
2022-09-12T23:12:11.178Z,6.73
2022-09-12T23:14:36.956Z,6.27
2022-09-12T23:17:02.787Z,7.07
2022-09-12T23:19:28.577Z,6.13
2022-09-12T23:21:54.354Z,6.30
2022-09-12T23:24:20.141Z,7.00
2022-09-12T23:26:45.948Z,6.60
2022-09-12T23:29:11.771Z,5.30
2022-09-12T23:31:37.638Z,6.43
2022-09-12T23:34:05.187Z,5.93
2022-09-12T23:36:31.095Z,6.50
2022-09-12T23:38:57.622Z,6.37
2022-09-12T23:41:24.424Z,6.60
2022-09-12T23:43:50.931Z,5.73
2022-09-12T23:46:17.846Z,5.93
2022-09-12T23:48:44.112Z,6.70
2022-09-12T23:51:10.378Z,6.50
2022-09-12T23:53:36.461Z,6.47
2022-09-12T23:56:02.615Z,5.90
2022-09-12T23:58:30.238Z,6.23
